createdAt,value
2022-07-31T00:00:58.970Z,3.42
2022-07-31T00:03:30.117Z,2.85
2022-07-31T00:05:57.077Z,2.95
2022-07-31T00:08:24.638Z,3.30
2022-07-31T00:10:51.422Z,3.67
2022-07-31T00:13:18.135Z,3.08
2022-07-31T00:16:05.585Z,2.65
2022-07-31T00:18:35.783Z,2.92
2022-07-31T00:21:03.600Z,2.83
2022-07-31T00:23:37.742Z,3.10
2022-07-31T00:26:04.538Z,3.10
2022-07-31T00:28:31.438Z,3.35
2022-07-31T00:31:04.352Z,2.92
2022-07-31T00:33:36.438Z,3.10
2022-07-31T00:36:08.010Z,3.33
2022-07-31T00:38:37.984Z,3.42
2022-07-31T00:41:04.822Z,3.25
2022-07-31T00:43:31.611Z,3.20
2022-07-31T00:45:59.431Z,3.17
2022-07-31T00:48:27.589Z,3.53
2022-07-31T00:50:55.575Z,3.45
2022-07-31T00:53:22.441Z,3.55
2022-07-31T00:55:51.656Z,3.53
2022-07-31T00:58:20.101Z,3.47
2022-07-31T01:00:47.555Z,3.67
2022-07-31T01:03:14.664Z,4.22
2022-07-31T01:05:41.926Z,3.83
2022-07-31T01:08:08.887Z,3.97
2022-07-31T01:13:52.138Z,4.50
2022-07-31T01:17:01.458Z,4.82
2022-07-31T01:19:42.084Z,5.20
2022-07-31T01:22:33.506Z,4.63
2022-07-31T01:25:40.950Z,4.50
2022-07-31T01:29:42.734Z,7.90
2022-07-31T01:32:44.474Z,7.80
2022-07-31T01:35:21.971Z,5.30
2022-07-31T01:38:04.349Z,4.30
2022-07-31T01:40:48.869Z,4.47
2022-07-31T01:43:23.426Z,4.30
2022-07-31T01:45:57.882Z,5.20
2022-07-31T01:48:27.525Z,4.90
2022-07-31T01:50:59.537Z,4.38
2022-07-31T01:53:28.439Z,5.10
2022-07-31T01:56:14.278Z,4.72
2022-07-31T01:58:43.129Z,5.10
2022-07-31T02:01:46.214Z,5.03
2022-07-31T02:04:27.276Z,5.70
2022-07-31T02:06:55.779Z,5.28
2022-07-31T02:09:24.059Z,5.30
2022-07-31T02:12:09.829Z,5.90
2022-07-31T02:14:49.977Z,4.90
2022-07-31T02:17:28.613Z,5.43
2022-07-31T02:23:19.723Z,5.25
2022-07-31T02:25:48.041Z,6.10
2022-07-31T02:28:22.292Z,6.45
2022-07-31T02:30:51.781Z,5.97
2022-07-31T02:33:25.517Z,6.63
2022-07-31T02:35:56.348Z,5.60
2022-07-31T02:38:26.587Z,6.75
2022-07-31T02:40:59.079Z,6.40
2022-07-31T02:43:29.111Z,6.72
2022-07-31T02:46:01.266Z,7.55
2022-07-31T02:48:31.578Z,7.13
2022-07-31T02:51:05.085Z,7.40
2022-07-31T02:53:33.547Z,8.25
2022-07-31T02:56:06.423Z,7.95
2022-07-31T02:58:39.463Z,8.20
2022-07-31T03:01:08.449Z,9.05
2022-07-31T03:03:40.587Z,8.52
2022-07-31T03:06:07.639Z,8.40
2022-07-31T03:08:34.885Z,8.93
2022-07-31T03:11:04.798Z,8.50
2022-07-31T03:13:33.584Z,10.05
2022-07-31T03:16:02.356Z,10.20
2022-07-31T03:18:30.974Z,9.52
2022-07-31T03:20:58.256Z,9.40
2022-07-31T03:23:28.353Z,9.88
2022-07-31T03:26:05.601Z,10.68
2022-07-31T03:28:35.422Z,9.88
2022-07-31T03:31:03.008Z,10.40
2022-07-31T03:33:31.110Z,10.02
2022-07-31T03:35:59.195Z,9.98
2022-07-31T03:38:38.849Z,10.70
2022-07-31T03:41:16.105Z,10.05
2022-07-31T03:43:48.066Z,10.15
2022-07-31T03:46:19.983Z,10.43
2022-07-31T03:48:47.915Z,10.15
2022-07-31T03:51:15.731Z,10.38
2022-07-31T03:53:43.668Z,9.68
2022-07-31T03:56:19.966Z,10.50
2022-07-31T03:58:51.588Z,9.98
2022-07-31T04:01:20.781Z,9.27
2022-07-31T04:03:49.206Z,9.55
2022-07-31T04:06:28.509Z,9.57
2022-07-31T04:08:56.294Z,9.30
2022-07-31T04:11:22.921Z,9.52
2022-07-31T04:13:50.041Z,8.95
2022-07-31T04:16:16.925Z,9.45
2022-07-31T04:18:43.739Z,9.52
2022-07-31T04:21:17.878Z,9.23
2022-07-31T04:23:49.610Z,9.05
2022-07-31T04:26:43.627Z,8.48
2022-07-31T04:29:11.780Z,9.10
2022-07-31T04:31:38.499Z,7.57
2022-07-31T04:34:08.341Z,7.93
2022-07-31T04:36:35.370Z,7.95
2022-07-31T04:39:02.229Z,7.97
2022-07-31T04:41:29.943Z,7.88
2022-07-31T04:44:01.441Z,7.57
2022-07-31T04:46:39.469Z,7.13
2022-07-31T04:49:06.802Z,7.10
2022-07-31T04:51:33.809Z,7.40
2022-07-31T04:54:00.737Z,6.78
2022-07-31T04:56:42.271Z,6.53
2022-07-31T04:59:12.691Z,6.60
2022-07-31T05:01:43.579Z,6.30
2022-07-31T05:04:11.347Z,5.75
2022-07-31T05:06:43.303Z,5.45
2022-07-31T05:09:18.419Z,6.38
2022-07-31T05:11:47.317Z,5.28
2022-07-31T05:14:16.729Z,4.90
2022-07-31T05:16:44.846Z,5.25
2022-07-31T05:19:13.824Z,5.05
2022-07-31T05:22:01.757Z,5.63
2022-07-31T05:24:34.124Z,5.10
2022-07-31T05:27:10.768Z,4.85
2022-07-31T05:29:40.432Z,5.15
2022-07-31T05:32:07.232Z,4.80
2022-07-31T05:34:35.449Z,4.35
2022-07-31T05:37:02.745Z,4.47
2022-07-31T05:39:35.407Z,4.20
2022-07-31T05:42:20.882Z,3.80
2022-07-31T05:45:08.149Z,3.88
2022-07-31T05:47:40.447Z,3.88
2022-07-31T05:50:09.722Z,3.47
2022-07-31T05:52:36.914Z,3.75
2022-07-31T05:55:27.923Z,3.67
2022-07-31T05:58:10.022Z,3.78
2022-07-31T06:00:39.926Z,3.90
2022-07-31T06:03:07.319Z,3.42
2022-07-31T06:06:00.340Z,3.60
2022-07-31T06:08:27.125Z,3.25
2022-07-31T06:10:56.538Z,3.72
2022-07-31T06:13:28.064Z,7.00
2022-07-31T06:15:56.130Z,3.35
2022-07-31T06:18:23.274Z,3.97
2022-07-31T06:20:50.579Z,3.50
2022-07-31T06:23:22.999Z,4.15
2022-07-31T06:26:06.214Z,4.03
2022-07-31T06:28:46.412Z,4.20
2022-07-31T06:31:19.581Z,4.20
2022-07-31T06:33:48.422Z,4.43
2022-07-31T06:36:16.958Z,4.30
2022-07-31T06:38:55.529Z,4.80
2022-07-31T06:41:46.804Z,4.57
2022-07-31T06:44:29.369Z,4.70
2022-07-31T06:47:15.945Z,5.35
2022-07-31T06:49:55.361Z,4.55
2022-07-31T06:52:26.085Z,4.65
2022-07-31T06:54:53.720Z,5.70
2022-07-31T06:57:20.641Z,5.93
2022-07-31T06:59:47.625Z,7.40
2022-07-31T07:02:14.487Z,6.70
2022-07-31T07:05:05.164Z,6.20
2022-07-31T07:07:31.986Z,6.35
2022-07-31T07:10:00.679Z,6.80
2022-07-31T07:12:54.142Z,7.13
2022-07-31T07:15:21.939Z,7.47
2022-07-31T07:17:48.750Z,7.78
2022-07-31T07:20:21.208Z,8.52
2022-07-31T07:22:48.115Z,7.82
2022-07-31T07:25:27.527Z,8.05
2022-07-31T07:27:57.105Z,8.40
2022-07-31T07:30:25.129Z,9.00
2022-07-31T07:32:52.143Z,9.05
2022-07-31T07:35:19.013Z,9.02
2022-07-31T07:37:51.630Z,9.23
2022-07-31T07:40:20.924Z,9.07
2022-07-31T07:42:48.868Z,8.65
2022-07-31T07:45:15.622Z,8.93
2022-07-31T07:48:02.819Z,8.40
2022-07-31T07:50:34.543Z,8.57
2022-07-31T07:53:19.764Z,8.93
2022-07-31T07:56:05.485Z,8.43
2022-07-31T07:58:41.028Z,9.30
2022-07-31T08:01:36.992Z,9.02
2022-07-31T08:04:26.142Z,9.63
2022-07-31T08:06:53.185Z,9.48
2022-07-31T08:09:23.219Z,12.18
2022-07-31T08:12:22.265Z,10.13
2022-07-31T08:15:05.575Z,11.20
2022-07-31T08:18:04.461Z,9.95
2022-07-31T08:20:31.455Z,11.23
2022-07-31T08:22:58.126Z,10.05
2022-07-31T08:25:24.994Z,10.15
2022-07-31T08:27:58.996Z,10.60
2022-07-31T08:30:29.215Z,9.63
2022-07-31T08:32:58.377Z,10.00
2022-07-31T08:35:34.878Z,10.48
2022-07-31T08:38:04.577Z,10.43
2022-07-31T08:40:43.115Z,9.88
2022-07-31T08:43:31.052Z,10.60
2022-07-31T08:46:03.070Z,9.65
2022-07-31T08:48:39.910Z,9.50
2022-07-31T08:51:07.468Z,17.92
2022-07-31T08:53:53.311Z,8.32
2022-07-31T08:56:21.736Z,8.40
2022-07-31T08:58:48.447Z,8.05
2022-07-31T09:01:15.763Z,8.00
2022-07-31T09:03:43.138Z,7.35
2022-07-31T09:06:12.463Z,7.90
2022-07-31T09:08:39.381Z,7.72
2022-07-31T09:11:13.905Z,7.43
2022-07-31T09:14:02.362Z,6.70
2022-07-31T09:16:50.543Z,7.20
2022-07-31T09:19:51.674Z,6.53
2022-07-31T09:22:25.033Z,6.82
2022-07-31T09:24:53.261Z,6.57
2022-07-31T09:27:20.504Z,6.20
2022-07-31T09:29:52.821Z,5.60
2022-07-31T09:32:32.471Z,5.90
2022-07-31T09:35:13.251Z,5.53
2022-07-31T09:37:41.690Z,5.82
2022-07-31T09:40:51.553Z,5.57
2022-07-31T09:43:55.612Z,5.18
2022-07-31T09:46:24.436Z,5.28
2022-07-31T09:48:59.907Z,4.38
2022-07-31T09:51:38.089Z,5.38
2022-07-31T09:54:05.366Z,4.57
2022-07-31T09:57:15.259Z,8.70
2022-07-31T09:59:49.376Z,4.30
2022-07-31T10:02:18.681Z,4.25
2022-07-31T10:04:49.447Z,3.92
2022-07-31T10:07:31.457Z,4.28
2022-07-31T10:10:10.267Z,4.00
2022-07-31T10:12:47.898Z,4.28
2022-07-31T10:15:17.495Z,3.80
2022-07-31T10:17:51.377Z,21.67
2022-07-31T10:20:42.737Z,4.07
2022-07-31T10:23:27.256Z,4.10
2022-07-31T10:25:59.799Z,3.60
2022-07-31T10:28:29.713Z,3.42
2022-07-31T10:30:57.334Z,3.53
2022-07-31T10:33:43.516Z,3.70
2022-07-31T10:36:35.387Z,5.68
2022-07-31T10:39:45.687Z,4.13
2022-07-31T10:42:40.520Z,3.75
2022-07-31T10:45:10.500Z,3.63
2022-07-31T10:48:11.290Z,4.35
2022-07-31T10:51:13.857Z,3.78
2022-07-31T10:54:02.433Z,15.98
2022-07-31T10:56:49.544Z,4.70
2022-07-31T10:59:35.976Z,4.35
2022-07-31T11:02:34.681Z,7.25
2022-07-31T11:05:30.469Z,10.23
2022-07-31T11:08:10.973Z,4.28
2022-07-31T11:10:54.600Z,4.55
2022-07-31T11:13:58.027Z,5.90
2022-07-31T11:16:55.766Z,4.50
2022-07-31T11:20:00.945Z,4.97
2022-07-31T11:22:30.950Z,5.15
2022-07-31T11:25:00.623Z,4.15
2022-07-31T11:27:34.491Z,4.88
2022-07-31T11:30:11.006Z,4.85
2022-07-31T11:32:39.686Z,5.57
2022-07-31T11:35:06.871Z,10.93
2022-07-31T11:37:45.341Z,5.50
2022-07-31T11:40:22.216Z,4.93
2022-07-31T11:43:10.305Z,9.52
2022-07-31T11:45:50.553Z,9.93
2022-07-31T11:48:19.735Z,4.88
2022-07-31T11:50:48.434Z,7.45
2022-07-31T11:53:15.798Z,6.32
2022-07-31T11:55:47.482Z,9.70
2022-07-31T11:58:15.920Z,5.80
2022-07-31T12:00:50.927Z,5.80
2022-07-31T12:03:20.283Z,5.80
2022-07-31T12:05:49.684Z,6.22
2022-07-31T12:08:16.915Z,5.60
2022-07-31T12:10:43.859Z,5.25
2022-07-31T12:13:16.232Z,5.40
2022-07-31T12:15:58.340Z,6.30
2022-07-31T12:18:28.291Z,6.72
2022-07-31T12:21:03.682Z,5.32
2022-07-31T12:23:42.145Z,14.05
2022-07-31T12:26:12.275Z,8.88
2022-07-31T12:28:39.909Z,4.47
2022-07-31T12:31:06.643Z,4.40
2022-07-31T12:33:41.108Z,4.60
2022-07-31T12:36:17.725Z,4.70
2022-07-31T12:38:48.481Z,4.63
2022-07-31T12:41:16.371Z,4.63
2022-07-31T12:43:43.083Z,4.10
2022-07-31T12:46:39.067Z,3.67
2022-07-31T12:49:06.716Z,4.32
2022-07-31T12:51:45.181Z,4.35
2022-07-31T12:54:17.287Z,4.10
2022-07-31T12:56:45.299Z,5.03
2022-07-31T12:59:12.161Z,3.95
2022-07-31T13:01:39.370Z,9.00
2022-07-31T13:04:07.710Z,3.72
2022-07-31T13:06:36.224Z,13.85
2022-07-31T13:09:03.459Z,3.50
2022-07-31T13:11:46.074Z,4.05
2022-07-31T13:14:18.976Z,4.03
2022-07-31T13:16:47.318Z,5.43
2022-07-31T13:19:15.115Z,3.38
2022-07-31T13:21:48.816Z,3.17
2022-07-31T13:24:17.244Z,4.40
2022-07-31T13:26:45.415Z,3.58
2022-07-31T13:29:13.025Z,3.90
2022-07-31T13:31:40.123Z,3.60
2022-07-31T13:34:07.057Z,4.97
2022-07-31T13:36:38.642Z,5.45
2022-07-31T13:41:38.901Z,4.25
2022-07-31T13:44:07.166Z,3.40
2022-07-31T13:46:34.663Z,4.10
2022-07-31T13:49:02.552Z,4.47
2022-07-31T13:51:29.659Z,4.93
2022-07-31T13:53:56.901Z,3.80
2022-07-31T13:56:39.637Z,4.13
2022-07-31T13:59:11.464Z,3.35
2022-07-31T14:02:02.113Z,4.35
2022-07-31T14:04:28.568Z,2.72
2022-07-31T14:07:00.142Z,2.63
2022-07-31T14:09:28.631Z,2.90
2022-07-31T14:11:56.129Z,7.35
2022-07-31T14:14:23.710Z,2.30
2022-07-31T14:16:51.079Z,2.78
2022-07-31T14:19:17.997Z,3.50
2022-07-31T14:21:56.048Z,3.30
2022-07-31T14:24:27.309Z,24.98
2022-07-31T14:26:54.141Z,7.95
2022-07-31T14:29:21.186Z,4.00
2022-07-31T14:31:48.189Z,3.35
2022-07-31T14:34:14.856Z,5.20
2022-07-31T14:36:41.590Z,4.65
2022-07-31T14:39:08.315Z,4.10
2022-07-31T14:41:43.216Z,4.32
2022-07-31T14:44:10.134Z,8.40
2022-07-31T14:46:37.022Z,5.13
2022-07-31T14:49:04.689Z,6.30
2022-07-31T14:51:31.719Z,6.82
2022-07-31T14:53:59.649Z,5.68
2022-07-31T14:56:45.293Z,5.30
2022-07-31T14:59:13.517Z,5.50
2022-07-31T15:01:40.452Z,5.82
2022-07-31T15:04:07.492Z,4.88
2022-07-31T15:06:39.472Z,6.18
2022-07-31T15:09:21.279Z,5.72
2022-07-31T15:12:00.975Z,5.93
2022-07-31T15:14:30.253Z,5.70
2022-07-31T15:16:57.983Z,6.43
2022-07-31T15:19:24.985Z,7.80
2022-07-31T15:22:10.470Z,5.40
2022-07-31T15:24:49.195Z,5.82
2022-07-31T15:27:22.299Z,7.43
2022-07-31T15:30:05.220Z,4.30
2022-07-31T15:32:38.930Z,5.78
2022-07-31T15:35:09.016Z,5.68
2022-07-31T15:37:38.036Z,4.70
2022-07-31T15:40:07.417Z,3.90
2022-07-31T15:42:41.336Z,5.38
2022-07-31T15:45:29.962Z,4.43
2022-07-31T15:47:57.439Z,4.35
2022-07-31T15:50:28.100Z,3.65
2022-07-31T15:53:03.006Z,3.97
2022-07-31T15:55:33.331Z,8.82
2022-07-31T15:58:00.363Z,3.75
2022-07-31T16:00:30.256Z,3.75
2022-07-31T16:02:59.884Z,3.28
2022-07-31T16:05:36.722Z,3.03
2022-07-31T16:08:34.392Z,3.90
2022-07-31T16:11:00.375Z,4.80
2022-07-31T16:13:31.505Z,3.80
2022-07-31T16:15:59.124Z,4.50
2022-07-31T16:18:25.903Z,3.90
2022-07-31T16:20:53.128Z,6.00
2022-07-31T16:23:20.291Z,4.90
2022-07-31T16:25:47.284Z,6.03
2022-07-31T16:28:15.143Z,4.78
2022-07-31T16:30:47.126Z,4.85
2022-07-31T16:33:15.545Z,4.65
2022-07-31T16:35:47.543Z,4.32
2022-07-31T16:38:17.351Z,4.47
2022-07-31T16:40:44.181Z,4.47
2022-07-31T16:43:49.162Z,4.05
2022-07-31T16:45:58.885Z,5.10
2022-07-31T16:48:26.247Z,4.68
2022-07-31T16:50:59.201Z,6.03
2022-07-31T16:54:14.326Z,8.18
2022-07-31T16:56:41.621Z,5.97
2022-07-31T16:59:11.504Z,4.43
2022-07-31T17:01:57.110Z,6.43
2022-07-31T17:04:34.238Z,4.68
2022-07-31T17:07:03.899Z,5.13
2022-07-31T17:09:33.035Z,4.90
2022-07-31T17:12:00.226Z,4.40
2022-07-31T17:14:28.195Z,6.07
2022-07-31T17:16:56.273Z,4.28
2022-07-31T17:19:41.682Z,5.18
2022-07-31T17:22:16.098Z,5.47
2022-07-31T17:24:50.850Z,4.57
2022-07-31T17:27:20.668Z,5.38
2022-07-31T17:29:47.749Z,4.28
2022-07-31T17:32:17.833Z,6.32
2022-07-31T17:34:46.474Z,5.15
2022-07-31T17:37:13.671Z,5.68
2022-07-31T17:39:40.544Z,6.13
2022-07-31T17:42:09.391Z,5.40
2022-07-31T17:44:36.933Z,5.95
2022-07-31T17:47:09.085Z,11.98
2022-07-31T17:49:36.889Z,6.13
2022-07-31T17:52:03.944Z,5.75
2022-07-31T17:54:33.791Z,5.45
2022-07-31T17:57:01.134Z,4.63
2022-07-31T17:59:29.641Z,6.88
2022-07-31T18:02:01.121Z,5.65
2022-07-31T18:04:32.850Z,6.60
2022-07-31T18:07:01.549Z,6.03
2022-07-31T18:09:28.886Z,6.93
2022-07-31T18:11:56.317Z,5.88
2022-07-31T18:14:24.522Z,5.50
2022-07-31T18:16:52.184Z,5.95
2022-07-31T18:19:23.498Z,5.35
2022-07-31T18:21:51.315Z,7.00
2022-07-31T18:24:19.874Z,5.47
2022-07-31T18:26:47.050Z,6.70
2022-07-31T18:29:13.908Z,5.68
2022-07-31T18:31:40.906Z,9.32
2022-07-31T18:34:08.045Z,5.50
2022-07-31T18:36:35.311Z,6.10
2022-07-31T18:39:03.850Z,6.50
2022-07-31T18:41:31.077Z,5.55
2022-07-31T18:44:04.327Z,5.90
2022-07-31T18:46:35.365Z,5.88
2022-07-31T18:49:02.678Z,6.88
2022-07-31T18:51:29.964Z,6.13
2022-07-31T18:53:57.827Z,6.68
2022-07-31T18:56:25.777Z,6.57
2022-07-31T18:58:53.645Z,6.57
2022-07-31T19:01:21.835Z,6.18
2022-07-31T19:03:51.866Z,5.82
2022-07-31T19:06:19.757Z,6.40
2022-07-31T19:08:49.353Z,6.45
2022-07-31T19:11:16.293Z,5.80
2022-07-31T19:13:42.960Z,4.68
2022-07-31T19:16:09.726Z,5.88
2022-07-31T19:18:40.168Z,4.90
2022-07-31T19:21:19.164Z,5.60
2022-07-31T19:26:17.326Z,7.20
2022-07-31T19:28:44.265Z,6.05
2022-07-31T19:31:13.232Z,5.25
2022-07-31T19:33:40.447Z,6.60
2022-07-31T19:36:07.418Z,7.07
2022-07-31T19:38:38.173Z,8.80
2022-07-31T19:41:08.487Z,5.72
2022-07-31T19:43:35.816Z,6.97
2022-07-31T19:46:11.204Z,8.38
2022-07-31T19:48:43.988Z,11.05
2022-07-31T19:51:12.210Z,9.75
2022-07-31T19:53:42.005Z,8.80
2022-07-31T19:56:09.844Z,7.40
2022-07-31T19:58:41.988Z,8.50
2022-07-31T20:01:23.419Z,9.60
2022-07-31T20:04:01.349Z,6.30
2022-07-31T20:06:38.958Z,10.00
2022-07-31T20:09:08.505Z,9.50
2022-07-31T20:11:37.371Z,10.80
2022-07-31T20:14:07.282Z,10.20
2022-07-31T20:16:34.712Z,8.40
2022-07-31T20:19:01.976Z,8.45
2022-07-31T20:21:31.875Z,11.88
2022-07-31T20:24:04.894Z,13.32
2022-07-31T20:26:36.288Z,24.15
2022-07-31T20:29:04.926Z,10.90
2022-07-31T20:31:32.023Z,9.75
2022-07-31T20:33:58.745Z,13.50
2022-07-31T20:36:26.936Z,7.70
2022-07-31T20:38:54.287Z,8.80
2022-07-31T20:41:21.148Z,9.43
2022-07-31T20:43:47.944Z,9.57
2022-07-31T20:46:16.810Z,11.85
2022-07-31T20:48:45.217Z,10.88
2022-07-31T20:51:19.229Z,11.73
2022-07-31T20:53:50.420Z,10.93
2022-07-31T20:56:17.569Z,11.02
2022-07-31T20:58:50.883Z,12.38
2022-07-31T21:01:20.244Z,10.75
2022-07-31T21:03:47.182Z,11.88
2022-07-31T21:06:14.082Z,10.00
2022-07-31T21:08:41.625Z,10.18
2022-07-31T21:11:08.714Z,10.55
2022-07-31T21:13:36.348Z,10.38
2022-07-31T21:16:05.973Z,14.27
2022-07-31T21:18:39.988Z,10.55
2022-07-31T21:21:09.712Z,9.27
2022-07-31T21:23:36.529Z,9.82
2022-07-31T21:26:03.915Z,11.73
2022-07-31T21:28:31.117Z,13.18
2022-07-31T21:31:00.866Z,11.98
2022-07-31T21:33:28.518Z,13.32
2022-07-31T21:35:55.718Z,11.88
2022-07-31T21:38:22.783Z,14.98
2022-07-31T21:40:50.204Z,13.27
2022-07-31T21:43:22.075Z,14.15
2022-07-31T21:45:57.338Z,20.73
2022-07-31T21:48:28.426Z,16.48
2022-07-31T21:50:55.585Z,13.73
2022-07-31T21:53:24.285Z,17.15
2022-07-31T21:55:51.732Z,13.30
2022-07-31T21:58:19.528Z,13.68
2022-07-31T22:00:47.079Z,11.70
2022-07-31T22:03:14.023Z,12.70
2022-07-31T22:05:59.682Z,12.48
2022-07-31T22:08:26.565Z,9.65
2022-07-31T22:10:53.530Z,8.95
2022-07-31T22:13:20.932Z,8.35
2022-07-31T22:15:58.600Z,8.57
2022-07-31T22:18:34.625Z,7.72
2022-07-31T22:21:06.302Z,8.55
2022-07-31T22:23:34.096Z,9.38
2022-07-31T22:26:01.891Z,9.02
2022-07-31T22:28:29.745Z,8.52
2022-07-31T22:30:59.574Z,12.10
2022-07-31T22:33:27.702Z,8.63
2022-07-31T22:36:00.192Z,9.27
2022-07-31T22:38:31.568Z,8.27
2022-07-31T22:41:00.080Z,8.68
2022-07-31T22:44:13.230Z,8.45
2022-07-31T22:46:15.742Z,9.38
2022-07-31T22:48:45.650Z,8.68
2022-07-31T22:51:14.630Z,9.02
2022-07-31T22:53:49.096Z,8.23
2022-07-31T22:56:17.889Z,8.70
2022-07-31T22:58:45.152Z,9.35
2022-07-31T23:01:12.291Z,10.02
2022-07-31T23:03:39.424Z,9.07
2022-07-31T23:06:31.166Z,8.98
2022-07-31T23:08:53.696Z,9.02
2022-07-31T23:11:23.757Z,8.65
2022-07-31T23:13:54.216Z,9.40
2022-07-31T23:16:21.741Z,8.90
2022-07-31T23:18:51.085Z,9.57
2022-07-31T23:21:21.165Z,9.68
2022-07-31T23:23:48.984Z,9.30
2022-07-31T23:26:20.812Z,9.10
2022-07-31T23:28:49.038Z,9.10
2022-07-31T23:31:16.462Z,9.68
2022-07-31T23:33:43.686Z,9.63
2022-07-31T23:36:11.516Z,9.30
2022-07-31T23:38:38.531Z,9.80
2022-07-31T23:41:05.479Z,9.02
2022-07-31T23:43:32.236Z,10.13
2022-07-31T23:45:59.335Z,9.50
2022-07-31T23:48:29.933Z,10.23
2022-07-31T23:50:57.258Z,9.68
2022-07-31T23:53:24.454Z,10.20
2022-07-31T23:55:51.413Z,9.77
2022-07-31T23:58:18.351Z,10.43
